Time;durP1;ratioP1;P1;durP2;ratioP2;P2;SDS_P1;SDS_P2;PMS_P1;PMS_P2;Temp;Humidity;BMP_temperature;BMP_pressure;BME280_temperature;BME280_humidity;BME280_pressure;Samples;Min_cycle;Max_cycle;Signal;HPM_P1;HPM_P2
2022/03/26 00:00:33;;;;;;;10.13;7.55;;;20.30;56.20;;;;;;4901175;28;87999;-86
2022/03/26 00:02:59;;;;;;;8.77;7.30;;;20.20;56.10;;;;;;4911896;28;87016;-85
2022/03/26 00:05:25;;;;;;;9.55;7.75;;;20.20;56.20;;;;;;4925947;28;90885;-86
2022/03/26 00:07:50;;;;;;;8.75;7.35;;;20.20;56.20;;;;;;4926824;28;89713;-87
2022/03/26 00:10:16;;;;;;;8.93;7.20;;;20.20;56.60;;;;;;4904804;28;88842;-85
2022/03/26 00:12:42;;;;;;;9.23;6.97;;;20.20;56.00;;;;;;4904458;28;89488;-86
2022/03/26 00:15:10;;;;;;;8.88;7.70;;;20.20;56.00;;;;;;4910945;28;88146;-85
2022/03/26 00:17:37;;;;;;;10.85;7.50;;;20.20;55.90;;;;;;4911690;28;88133;-85
2022/03/26 00:20:13;;;;;;;9.90;8.52;;;20.20;55.70;;;;;;4911416;28;87937;-85
2022/03/26 00:22:38;;;;;;;10.30;7.22;;;20.20;55.40;;;;;;4926762;28;90121;-88
2022/03/26 00:25:05;;;;;;;9.45;7.43;;;20.20;55.80;;;;;;4912280;28;88355;-87
2022/03/26 00:27:31;;;;;;;8.77;7.10;;;20.20;55.70;;;;;;4910858;28;90105;-85
2022/03/26 00:29:57;;;;;;;12.80;8.38;;;20.20;55.50;;;;;;4912429;28;87472;-86
2022/03/26 00:32:23;;;;;;;9.23;7.68;;;20.20;55.50;;;;;;4911971;28;87232;-87
2022/03/26 00:34:49;;;;;;;9.07;7.43;;;20.20;55.70;;;;;;4911791;28;89199;-87
2022/03/26 00:37:16;;;;;;;10.57;7.60;;;20.20;55.80;;;;;;4910398;28;90354;-84
2022/03/26 00:39:42;;;;;;;8.43;7.13;;;20.20;55.90;;;;;;4910536;28;87406;-85
2022/03/26 00:42:08;;;;;;;9.88;6.95;;;20.20;55.80;;;;;;4912024;28;87733;-87
2022/03/26 00:44:38;;;;;;;9.68;7.57;;;20.20;56.00;;;;;;4900698;28;90839;-85
2022/03/26 00:47:04;;;;;;;8.55;7.38;;;20.10;55.90;;;;;;4905046;28;90223;-86
2022/03/26 00:49:30;;;;;;;9.52;7.22;;;20.20;55.80;;;;;;4911661;28;87973;-87
2022/03/26 00:51:56;;;;;;;10.10;7.57;;;20.10;55.80;;;;;;4910819;28;89353;-85
2022/03/26 00:54:22;;;;;;;10.07;7.32;;;20.10;55.80;;;;;;4910869;28;87039;-86
2022/03/26 00:56:47;;;;;;;9.73;7.20;;;20.10;55.80;;;;;;4909981;28;88570;-85
2022/03/26 00:59:23;;;;;;;8.20;7.35;;;20.10;55.80;;;;;;4911514;28;88686;-85
2022/03/26 01:01:49;;;;;;;8.55;7.25;;;20.10;55.70;;;;;;4900316;28;89444;-86
2022/03/26 01:04:15;;;;;;;8.90;7.38;;;20.10;55.80;;;;;;4911394;28;87928;-87
2022/03/26 01:06:41;;;;;;;9.25;7.47;;;20.10;55.80;;;;;;4911294;28;87713;-84
2022/03/26 01:09:07;;;;;;;9.05;7.07;;;20.10;55.70;;;;;;4911293;28;87871;-86
2022/03/26 01:11:34;;;;;;;8.00;6.80;;;20.10;55.80;;;;;;4925455;28;90760;-83
2022/03/26 01:14:00;;;;;;;8.30;7.40;;;20.10;55.80;;;;;;4911076;28;88072;-86
2022/03/26 01:16:27;;;;;;;9.75;8.07;;;20.10;55.90;;;;;;4911636;28;87818;-86
2022/03/26 01:18:53;;;;;;;9.20;6.85;;;20.10;55.80;;;;;;4910415;28;87258;-87
2022/03/26 01:21:19;;;;;;;8.05;7.03;;;20.10;55.80;;;;;;4911491;28;87465;-84
2022/03/26 01:23:46;;;;;;;7.82;6.75;;;20.10;55.90;;;;;;4910915;28;88479;-85
2022/03/26 01:26:13;;;;;;;7.97;7.15;;;20.10;55.90;;;;;;4900822;28;89785;-84
2022/03/26 01:28:39;;;;;;;8.90;7.40;;;20.10;55.70;;;;;;4909896;28;88133;-85
2022/03/26 01:31:04;;;;;;;8.68;7.20;;;20.10;55.80;;;;;;4910516;28;87179;-85
2022/03/26 01:33:30;;;;;;;8.73;7.38;;;20.00;55.70;;;;;;4911607;28;91095;-85
2022/03/26 01:35:56;;;;;;;9.15;7.18;;;20.00;55.70;;;;;;4913674;28;87679;-85
2022/03/26 01:38:22;;;;;;;9.18;7.30;;;20.00;55.70;;;;;;4914805;28;87529;-87
2022/03/26 01:40:49;;;;;;;7.80;6.50;;;20.00;55.60;;;;;;4914544;28;86993;-85
2022/03/26 01:43:25;;;;;;;8.68;6.97;;;20.00;55.80;;;;;;4913135;28;90430;-85
2022/03/26 01:45:50;;;;;;;8.70;7.07;;;20.00;55.70;;;;;;4914400;28;87768;-86
2022/03/26 01:48:16;;;;;;;9.57;7.05;;;20.00;55.70;;;;;;4914147;28;88093;-86
2022/03/26 01:50:42;;;;;;;11.13;7.63;;;20.00;55.70;;;;;;4914558;28;87586;-84
2022/03/26 01:53:08;;;;;;;7.57;6.70;;;20.00;55.60;;;;;;4913461;28;87284;-85
2022/03/26 01:55:34;;;;;;;7.60;6.80;;;20.00;55.60;;;;;;4911071;28;90681;-86
2022/03/26 01:58:00;;;;;;;7.03;6.32;;;20.00;55.50;;;;;;4928426;28;87781;-87
2022/03/26 02:00:26;;;;;;;8.30;6.70;;;20.00;55.60;;;;;;4913250;28;86987;-86
2022/03/26 02:02:51;;;;;;;8.73;7.22;;;20.00;55.60;;;;;;4914203;28;88577;-85
2022/03/26 02:05:20;;;;;;;7.68;6.78;;;20.00;55.50;;;;;;4914403;28;87470;-87
2022/03/26 02:07:47;;;;;;;10.37;7.43;;;20.00;55.60;;;;;;4912995;28;87509;-87
2022/03/26 02:10:14;;;;;;;9.00;7.15;;;20.00;55.50;;;;;;4903648;28;89790;-84
2022/03/26 02:12:40;;;;;;;7.65;6.82;;;20.00;55.40;;;;;;4913942;28;89178;-85
2022/03/26 02:15:07;;;;;;;7.78;6.97;;;20.00;56.20;;;;;;4912704;28;87614;-85
2022/03/26 02:17:34;;;;;;;7.88;6.85;;;20.00;55.50;;;;;;4913901;28;87425;-86
2022/03/26 02:20:01;;;;;;;7.85;6.88;;;20.00;55.40;;;;;;4914671;28;87898;-85
2022/03/26 02:22:28;;;;;;;8.10;6.55;;;19.90;55.30;;;;;;4913716;28;87625;-87
2022/03/26 02:24:57;;;;;;;9.30;6.88;;;20.00;55.30;;;;;;4911492;28;88921;-86
2022/03/26 02:27:24;;;;;;;8.32;7.22;;;19.90;55.30;;;;;;4903681;28;87608;-86
2022/03/26 02:29:51;;;;;;;7.93;7.13;;;19.90;55.20;;;;;;4913032;28;86783;-85
2022/03/26 02:32:21;;;;;;;9.00;7.07;;;19.90;55.10;;;;;;4913786;28;87981;-86
2022/03/26 02:34:47;;;;;;;8.75;7.03;;;19.90;55.20;;;;;;4928247;28;90305;-87
2022/03/26 02:37:13;;;;;;;9.02;7.45;;;19.90;55.10;;;;;;4913323;28;88185;-85
2022/03/26 02:39:38;;;;;;;8.52;7.03;;;19.90;55.10;;;;;;4914477;28;87611;-87
2022/03/26 02:42:05;;;;;;;9.18;7.43;;;19.90;55.00;;;;;;4911164;28;90308;-86
2022/03/26 02:44:30;;;;;;;7.68;6.88;;;19.90;55.10;;;;;;4926800;28;90578;-85
2022/03/26 02:46:56;;;;;;;9.13;8.02;;;19.90;55.10;;;;;;4912692;28;87710;-86
2022/03/26 02:49:21;;;;;;;7.88;6.97;;;19.90;55.20;;;;;;4912703;28;87319;-85
2022/03/26 02:51:47;;;;;;;8.38;7.20;;;19.90;55.20;;;;;;4912755;28;89233;-85
2022/03/26 02:54:18;;;;;;;8.00;7.15;;;19.90;55.10;;;;;;4913038;28;87304;-86
2022/03/26 02:56:51;;;;;;;9.55;7.72;;;19.90;55.20;;;;;;4912700;28;87558;-85
2022/03/26 02:59:18;;;;;;;8.90;7.10;;;19.90;55.10;;;;;;4913462;28;87853;-87
2022/03/26 03:01:54;;;;;;;8.55;7.60;;;19.90;55.00;;;;;;4920051;28;90183;-88
2022/03/26 03:04:24;;;;;;;8.90;7.50;;;19.80;55.10;;;;;;4912959;28;88709;-86
2022/03/26 03:06:51;;;;;;;8.60;7.68;;;19.80;55.00;;;;;;4913097;28;87075;-88
2022/03/26 03:09:17;;;;;;;9.10;7.40;;;19.80;55.00;;;;;;4928216;28;89253;-87
2022/03/26 03:11:43;;;;;;;7.70;6.88;;;19.90;54.90;;;;;;4927355;28;88929;-87
2022/03/26 03:14:10;;;;;;;8.10;7.30;;;19.80;54.80;;;;;;4912067;28;89073;-87
2022/03/26 03:16:37;;;;;;;8.40;7.05;;;19.80;55.40;;;;;;4911028;28;87042;-85
2022/03/26 03:19:05;;;;;;;9.02;7.38;;;19.80;54.80;;;;;;4913726;28;86933;-85
2022/03/26 03:21:32;;;;;;;8.32;7.43;;;19.80;54.80;;;;;;4913474;28;87951;-87
2022/03/26 03:23:57;;;;;;;7.57;6.88;;;19.80;54.80;;;;;;4910863;28;90048;-84
2022/03/26 03:26:23;;;;;;;8.27;7.38;;;19.80;54.90;;;;;;4911639;28;88577;-86
2022/03/26 03:28:49;;;;;;;8.68;7.20;;;19.80;54.80;;;;;;4911863;28;87763;-87
2022/03/26 03:31:14;;;;;;;8.75;7.30;;;19.80;54.80;;;;;;4912721;28;87711;-85
2022/03/26 03:33:40;;;;;;;8.77;7.35;;;19.80;54.80;;;;;;4927028;28;88761;-85
2022/03/26 03:36:05;;;;;;;7.25;6.55;;;19.80;54.70;;;;;;4899806;28;87262;-85
2022/03/26 03:38:31;;;;;;;7.75;6.95;;;19.80;54.70;;;;;;4911888;28;89571;-86
2022/03/26 03:41:06;;;;;;;8.38;6.88;;;19.80;54.70;;;;;;4912548;28;87955;-86
2022/03/26 03:43:32;;;;;;;9.18;7.50;;;19.80;54.90;;;;;;4926805;28;90241;-87
2022/03/26 03:45:58;;;;;;;8.27;7.43;;;19.80;54.90;;;;;;4926849;28;87689;-87
2022/03/26 03:48:24;;;;;;;8.20;7.30;;;19.80;54.70;;;;;;4912239;28;87000;-85
2022/03/26 03:50:49;;;;;;;8.32;7.40;;;19.80;54.80;;;;;;4910614;28;89213;-86
2022/03/26 03:53:15;;;;;;;9.63;7.97;;;19.80;54.70;;;;;;4912093;28;87267;-87
2022/03/26 03:55:41;;;;;;;8.48;6.78;;;19.70;54.70;;;;;;4912246;28;87870;-85
2022/03/26 03:58:07;;;;;;;8.75;7.07;;;19.70;54.70;;;;;;4912241;28;86942;-85
2022/03/26 04:00:33;;;;;;;8.05;7.25;;;19.70;54.80;;;;;;4912111;28;90384;-86
2022/03/26 04:03:00;;;;;;;9.50;7.03;;;19.70;54.60;;;;;;4911681;28;87943;-84
2022/03/26 04:05:26;;;;;;;7.65;6.78;;;19.70;54.50;;;;;;4909258;28;87561;-85
2022/03/26 04:07:51;;;;;;;9.02;7.25;;;19.70;54.50;;;;;;4912771;28;86664;-86
2022/03/26 04:10:17;;;;;;;8.23;7.03;;;19.70;54.60;;;;;;4911928;28;88087;-84
2022/03/26 04:12:44;;;;;;;7.80;7.00;;;19.70;54.60;;;;;;4911419;28;87485;-85
2022/03/26 04:15:12;;;;;;;7.80;6.93;;;19.70;54.60;;;;;;4926495;28;88880;-87
2022/03/26 04:17:37;;;;;;;7.88;6.90;;;19.70;54.60;;;;;;4925613;28;89666;-86
2022/03/26 04:20:09;;;;;;;7.80;7.00;;;19.70;54.50;;;;;;4910849;28;89925;-86
2022/03/26 04:22:43;;;;;;;7.88;7.03;;;19.70;54.40;;;;;;4911709;28;88365;-87
2022/03/26 04:25:10;;;;;;;8.38;7.50;;;19.70;54.30;;;;;;4906461;28;87016;-85
2022/03/26 04:27:35;;;;;;;8.75;7.10;;;19.70;54.40;;;;;;4910618;28;88145;-84
2022/03/26 04:30:02;;;;;;;6.95;6.35;;;19.70;54.30;;;;;;4912770;28;87688;-86
2022/03/26 04:32:27;;;;;;;8.00;7.20;;;19.70;54.30;;;;;;4913011;28;86561;-86
2022/03/26 04:34:54;;;;;;;7.97;7.05;;;19.70;54.40;;;;;;4903670;28;87450;-87
2022/03/26 04:37:20;;;;;;;7.53;6.82;;;19.70;54.30;;;;;;4913258;28;87549;-87
2022/03/26 04:39:45;;;;;;;7.95;7.07;;;19.70;54.30;;;;;;4911613;28;88890;-84
2022/03/26 04:42:11;;;;;;;8.18;7.30;;;19.70;54.20;;;;;;4911412;28;89791;-84
2022/03/26 04:44:37;;;;;;;8.98;6.72;;;19.60;54.90;;;;;;4913095;28;87373;-86
2022/03/26 04:47:02;;;;;;;8.48;7.55;;;19.70;54.20;;;;;;4926512;28;89330;-85
2022/03/26 04:49:28;;;;;;;7.65;6.68;;;19.60;54.10;;;;;;4912806;28;87777;-86
2022/03/26 04:51:54;;;;;;;7.65;6.85;;;19.60;54.20;;;;;;4902202;28;90538;-84
2022/03/26 04:54:20;;;;;;;8.73;7.82;;;19.60;54.10;;;;;;4913195;28;87495;-83
2022/03/26 04:56:45;;;;;;;8.55;7.13;;;19.60;54.00;;;;;;4913450;28;87261;-86
2022/03/26 04:59:11;;;;;;;8.50;6.70;;;19.60;54.20;;;;;;4911032;28;89307;-84
2022/03/26 05:01:37;;;;;;;8.13;7.13;;;19.60;54.30;;;;;;4905577;28;89565;-84
2022/03/26 05:04:03;;;;;;;7.80;7.00;;;19.60;54.20;;;;;;4911566;28;88406;-83
2022/03/26 05:06:29;;;;;;;8.35;7.10;;;19.60;54.20;;;;;;4909988;28;87479;-84
2022/03/26 05:08:56;;;;;;;8.02;7.05;;;19.60;54.40;;;;;;4914078;28;90881;-85
2022/03/26 05:11:25;;;;;;;8.30;6.90;;;19.60;54.40;;;;;;4913984;28;89989;-85
2022/03/26 05:13:50;;;;;;;8.23;7.25;;;19.60;54.20;;;;;;4915313;28;87057;-86
2022/03/26 05:16:16;;;;;;;7.28;6.50;;;19.60;54.20;;;;;;4915363;28;87685;-84
2022/03/26 05:18:42;;;;;;;8.05;7.22;;;19.60;54.30;;;;;;4915817;28;88115;-85
2022/03/26 05:21:08;;;;;;;8.40;7.53;;;19.60;54.20;;;;;;4903854;28;89983;-85
2022/03/26 05:23:34;;;;;;;8.23;7.43;;;19.60;54.30;;;;;;4913509;28;88111;-86
2022/03/26 05:25:59;;;;;;;7.85;7.05;;;19.60;54.10;;;;;;4914854;28;87176;-86
2022/03/26 05:28:25;;;;;;;8.60;7.63;;;19.60;54.20;;;;;;4913776;28;89185;-85
2022/03/26 05:30:51;;;;;;;7.80;7.00;;;19.50;54.00;;;;;;4929611;28;91269;-85
2022/03/26 05:33:17;;;;;;;8.82;7.22;;;19.50;54.00;;;;;;4915685;28;87025;-86
2022/03/26 05:35:43;;;;;;;7.47;6.68;;;19.50;54.70;;;;;;4914856;28;87966;-86
2022/03/26 05:38:08;;;;;;;8.20;7.30;;;19.60;54.20;;;;;;4931701;28;90401;-86
2022/03/26 05:40:34;;;;;;;8.13;7.32;;;19.50;54.10;;;;;;4914048;28;89333;-86
2022/03/26 05:43:00;;;;;;;7.63;6.80;;;19.50;53.90;;;;;;4914883;28;87739;-86
2022/03/26 05:45:26;;;;;;;7.57;6.82;;;19.50;53.90;;;;;;4914315;28;86623;-85
2022/03/26 05:47:59;;;;;;;8.15;7.35;;;19.50;53.90;;;;;;4915187;28;87886;-87
2022/03/26 05:50:25;;;;;;;8.68;7.18;;;19.50;53.80;;;;;;4915769;28;88830;-87
2022/03/26 05:53:09;;;;;;;8.23;7.38;;;19.50;54.60;;;;;;4914440;28;88120;-86
2022/03/26 05:55:34;;;;;;;7.38;6.57;;;19.50;53.90;;;;;;4907037;28;90135;-84
2022/03/26 05:58:00;;;;;;;8.55;7.28;;;19.50;53.90;;;;;;4913443;28;91111;-86
2022/03/26 06:00:25;;;;;;;8.23;6.95;;;19.50;54.00;;;;;;4904840;28;90286;-86
2022/03/26 06:02:51;;;;;;;8.38;7.50;;;19.50;54.10;;;;;;4905486;28;87560;-85
2022/03/26 06:05:17;;;;;;;8.82;7.20;;;19.50;53.80;;;;;;4914213;28;87143;-87
2022/03/26 06:07:42;;;;;;;8.40;7.40;;;19.50;53.90;;;;;;4913227;28;90191;-86
2022/03/26 06:10:08;;;;;;;7.47;6.70;;;19.50;54.00;;;;;;4913339;28;91021;-86
2022/03/26 06:12:35;;;;;;;6.97;6.38;;;19.50;53.90;;;;;;4912672;28;87374;-87
2022/03/26 06:15:03;;;;;;;7.78;6.93;;;19.50;54.40;;;;;;4913311;28;88090;-87
2022/03/26 06:17:28;;;;;;;7.28;6.45;;;19.50;54.10;;;;;;4913518;28;89320;-86
2022/03/26 06:19:54;;;;;;;7.30;6.57;;;19.50;54.40;;;;;;4929287;28;91063;-85
2022/03/26 06:22:19;;;;;;;8.82;7.20;;;19.50;54.40;;;;;;4915227;28;87983;-84
2022/03/26 06:24:45;;;;;;;10.40;8.38;;;19.50;55.00;;;;;;4911623;28;88060;-87
2022/03/26 06:27:11;;;;;;;10.48;9.35;;;19.50;54.70;;;;;;4913977;28;89885;-86
2022/03/26 06:29:36;;;;;;;9.45;8.48;;;19.60;55.10;;;;;;4912406;28;90174;-83
2022/03/26 06:32:10;;;;;;;10.98;8.95;;;19.60;55.00;;;;;;4914071;28;87099;-85
2022/03/26 06:34:35;;;;;;;12.60;8.68;;;19.60;55.20;;;;;;4928205;28;89516;-86
2022/03/26 06:37:02;;;;;;;10.25;8.65;;;19.60;55.30;;;;;;4911364;28;90659;-84
2022/03/26 06:39:27;;;;;;;10.20;9.18;;;19.60;55.40;;;;;;4911575;28;88028;-85
2022/03/26 06:41:53;;;;;;;12.27;9.15;;;19.60;55.40;;;;;;4910493;28;88308;-85
2022/03/26 06:44:19;;;;;;;10.65;8.35;;;19.60;55.40;;;;;;4905275;28;89574;-85
2022/03/26 06:46:45;;;;;;;10.52;9.02;;;19.60;55.40;;;;;;4912836;28;87668;-85
2022/03/26 06:49:10;;;;;;;11.32;7.88;;;19.60;55.50;;;;;;4913301;28;87449;-85
2022/03/26 06:51:37;;;;;;;10.15;8.32;;;19.70;54.20;;;;;;4913935;28;87562;-86
2022/03/26 06:54:03;;;;;;;9.65;8.40;;;19.60;53.00;;;;;;4912919;28;87853;-84
2022/03/26 06:56:29;;;;;;;11.88;8.48;;;19.60;52.90;;;;;;4913245;28;87938;-86
2022/03/26 06:58:55;;;;;;;11.40;9.02;;;19.70;53.20;;;;;;4912304;28;87990;-84
2022/03/26 07:01:21;;;;;;;12.20;8.70;;;19.70;53.10;;;;;;4912314;28;87413;-85
2022/03/26 07:03:47;;;;;;;10.32;8.30;;;19.70;53.00;;;;;;4911904;28;87597;-85
2022/03/26 07:06:15;;;;;;;10.27;8.70;;;19.70;53.20;;;;;;4910969;28;88643;-86
2022/03/26 07:08:41;;;;;;;9.38;7.97;;;19.70;53.00;;;;;;4912484;28;89250;-86
2022/03/26 07:11:07;;;;;;;10.25;8.68;;;19.70;53.00;;;;;;4912900;28;87710;-87
2022/03/26 07:13:33;;;;;;;12.27;8.45;;;19.70;53.30;;;;;;4912472;28;87522;-86
2022/03/26 07:15:58;;;;;;;13.73;8.55;;;19.70;53.40;;;;;;4912344;28;88100;-85
2022/03/26 07:18:26;;;;;;;9.27;8.02;;;19.70;53.20;;;;;;4912845;28;87406;-86
2022/03/26 07:20:56;;;;;;;11.43;7.90;;;19.70;53.50;;;;;;4927444;28;88008;-85
2022/03/26 07:23:21;;;;;;;13.98;9.25;;;19.70;53.50;;;;;;4913320;28;87295;-85
2022/03/26 07:25:47;;;;;;;19.55;8.82;;;19.70;53.50;;;;;;4912853;28;87532;-86
2022/03/26 07:28:14;;;;;;;17.38;9.25;;;19.70;53.40;;;;;;4912393;28;88209;-85
2022/03/26 07:30:40;;;;;;;22.13;9.70;;;19.70;53.50;;;;;;4911322;28;88950;-85
2022/03/26 07:33:05;;;;;;;16.63;9.90;;;19.70;53.60;;;;;;4925932;28;88268;-84
2022/03/26 07:35:31;;;;;;;10.95;8.88;;;19.70;53.60;;;;;;4911068;28;87729;-87
2022/03/26 07:37:57;;;;;;;11.57;9.30;;;19.80;54.70;;;;;;4912302;28;88111;-87
2022/03/26 07:40:23;;;;;;;21.90;10.15;;;19.80;54.20;;;;;;4917078;28;86979;-83
2022/03/26 07:42:49;;;;;;;11.68;9.13;;;19.80;53.90;;;;;;4912012;28;87633;-86
2022/03/26 07:45:14;;;;;;;12.30;9.55;;;19.80;53.90;;;;;;4911616;28;87739;-86
2022/03/26 07:47:40;;;;;;;12.80;9.55;;;19.80;54.00;;;;;;4912699;28;87623;-85
2022/03/26 07:50:07;;;;;;;15.00;10.25;;;19.80;53.90;;;;;;4912533;28;87765;-85
2022/03/26 07:52:34;;;;;;;16.08;9.20;;;19.80;54.00;;;;;;4911508;28;87526;-85
2022/03/26 07:55:00;;;;;;;21.08;10.80;;;19.90;54.10;;;;;;4911069;28;88661;-86
2022/03/26 07:57:27;;;;;;;18.20;10.30;;;19.90;54.20;;;;;;4910840;28;88609;-84
2022/03/26 07:59:53;;;;;;;12.88;10.07;;;19.90;54.30;;;;;;4912198;28;87021;-85
2022/03/26 08:02:18;;;;;;;15.43;10.75;;;19.90;54.80;;;;;;4911837;28;87198;-83
2022/03/26 08:04:47;;;;;;;17.08;10.00;;;19.90;55.00;;;;;;4910556;28;91062;-86
2022/03/26 08:07:13;;;;;;;17.08;10.48;;;19.90;54.90;;;;;;4911451;28;88355;-86
2022/03/26 08:09:39;;;;;;;19.23;10.68;;;19.90;55.20;;;;;;4909689;28;87022;-85
2022/03/26 08:12:06;;;;;;;20.95;11.13;;;19.90;55.20;;;;;;4909837;28;89789;-84
2022/03/26 08:14:33;;;;;;;16.60;10.57;;;19.90;55.10;;;;;;4909084;28;92016;-85
2022/03/26 08:16:59;;;;;;;17.40;11.23;;;19.90;55.40;;;;;;4909108;28;87607;-83
2022/03/26 08:19:25;;;;;;;20.42;11.48;;;19.90;55.30;;;;;;4909106;28;88930;-85
2022/03/26 08:21:51;;;;;;;19.17;10.95;;;19.90;55.50;;;;;;4908067;28;89542;-85
2022/03/26 08:24:16;;;;;;;22.90;11.27;;;19.90;55.60;;;;;;4909671;28;87672;-84
2022/03/26 08:26:42;;;;;;;22.38;11.85;;;19.90;55.80;;;;;;4910113;28;87909;-86
2022/03/26 08:29:08;;;;;;;27.42;12.07;;;19.90;55.80;;;;;;4911007;28;87308;-86
2022/03/26 08:31:33;;;;;;;28.30;12.23;;;19.90;55.80;;;;;;4910648;28;88226;-85
2022/03/26 08:34:02;;;;;;;26.67;12.80;;;19.90;55.70;;;;;;4910237;28;89318;-84
2022/03/26 08:36:30;;;;;;;22.25;12.75;;;19.90;55.50;;;;;;4910633;28;90509;-88
2022/03/26 08:38:59;;;;;;;24.27;12.70;;;20.00;55.80;;;;;;4908584;28;88326;-85
2022/03/26 08:41:39;;;;;;;27.48;13.27;;;20.00;55.90;;;;;;4909942;28;87585;-84
2022/03/26 08:44:08;;;;;;;25.08;13.40;;;20.00;55.60;;;;;;4904354;28;90677;-87
2022/03/26 08:46:34;;;;;;;26.75;13.63;;;20.00;55.70;;;;;;4916702;28;88445;-86
2022/03/26 08:48:59;;;;;;;30.30;14.63;;;20.00;56.10;;;;;;4914838;28;88148;-85
2022/03/26 08:51:25;;;;;;;32.13;13.73;;;20.00;56.20;;;;;;4918017;28;87357;-86
2022/03/26 08:53:54;;;;;;;30.30;13.60;;;20.00;56.20;;;;;;4919131;28;87896;-86
2022/03/26 08:56:21;;;;;;;27.60;14.97;;;20.00;56.10;;;;;;4910336;28;90288;-85
2022/03/26 08:58:47;;;;;;;35.63;13.73;;;20.00;56.20;;;;;;4912683;28;87608;-85
2022/03/26 09:01:12;;;;;;;34.92;13.50;;;20.00;56.30;;;;;;4888968;28;89375;-88
2022/03/26 09:03:40;;;;;;;30.35;13.15;;;20.00;56.20;;;;;;4913346;28;87796;-88
2022/03/26 09:06:07;;;;;;;26.20;13.27;;;20.00;56.60;;;;;;4913708;28;87519;-87
2022/03/26 09:08:36;;;;;;;23.35;12.80;;;20.00;56.50;;;;;;4913946;28;88624;-85
2022/03/26 09:11:04;;;;;;;;;;;20.00;56.60;;;;;;4912002;28;86987;-87
2022/03/26 09:13:30;;;;;;;29.35;13.25;;;20.00;56.50;;;;;;4928008;28;90522;-86
2022/03/26 09:15:55;;;;;;;31.00;13.15;;;20.00;56.60;;;;;;4912865;28;87444;-88
2022/03/26 09:18:22;;;;;;;27.05;13.82;;;20.00;56.60;;;;;;4912020;28;86998;-87
2022/03/26 09:20:48;;;;;;;25.38;13.07;;;20.00;56.70;;;;;;4905442;28;89281;-85
2022/03/26 09:23:14;;;;;;;25.58;13.02;;;20.00;56.80;;;;;;4909625;28;91171;-87
2022/03/26 09:25:42;;;;;;;29.85;13.23;;;20.00;56.70;;;;;;4910447;28;90390;-86
2022/03/26 09:28:08;;;;;;;26.00;13.65;;;20.00;56.40;;;;;;4916577;28;87202;-86
2022/03/26 09:30:33;;;;;;;23.58;12.48;;;20.00;56.90;;;;;;4914352;28;86955;-85
2022/03/26 09:33:00;;;;;;;28.40;13.13;;;20.00;56.70;;;;;;4911865;28;89891;-86
2022/03/26 09:35:26;;;;;;;27.67;14.10;;;20.10;57.00;;;;;;4913024;28;88734;-85
2022/03/26 09:37:52;;;;;;;27.30;12.93;;;20.00;56.90;;;;;;4913602;28;87543;-88
2022/03/26 09:40:21;;;;;;;28.00;12.38;;;20.10;57.10;;;;;;4907773;28;89545;-87
2022/03/26 09:42:47;;;;;;;23.95;12.10;;;20.00;57.00;;;;;;4911361;28;87736;-88
2022/03/26 09:45:13;;;;;;;28.42;13.13;;;20.10;57.20;;;;;;4910819;28;89402;-86
2022/03/26 09:47:38;;;;;;;22.25;12.95;;;20.00;57.10;;;;;;4911430;28;87281;-85
2022/03/26 09:50:07;;;;;;;26.20;14.15;;;20.10;57.10;;;;;;4912134;28;88190;-88
2022/03/26 09:52:36;;;;;;;25.38;12.57;;;20.00;57.20;;;;;;4909532;28;90919;-85
2022/03/26 09:55:05;;;;;;;23.67;13.98;;;20.10;57.10;;;;;;4911066;28;87931;-87
2022/03/26 09:57:31;;;;;;;;;;;20.10;57.30;;;;;;4910412;28;87993;-86
2022/03/26 09:59:57;;;;;;;27.42;12.85;;;20.10;57.50;;;;;;4914741;28;87060;-86
2022/03/26 10:02:24;;;;;;;26.25;12.93;;;20.10;57.20;;;;;;4927057;28;90800;-87
2022/03/26 10:04:49;;;;;;;21.77;12.40;;;20.10;57.00;;;;;;4911921;28;87801;-85
2022/03/26 10:07:15;;;;;;;25.20;13.60;;;20.10;57.10;;;;;;4901380;28;87657;-87
2022/03/26 10:09:45;;;;;;;21.95;12.43;;;20.10;56.90;;;;;;4903761;28;89502;-86
2022/03/26 10:12:19;;;;;;;27.70;12.23;;;20.10;57.00;;;;;;4911429;28;88016;-86
2022/03/26 10:14:55;;;;;;;37.55;14.07;;;20.10;55.10;;;;;;4908148;28;90851;-87
2022/03/26 10:17:28;;;;;;;25.05;12.90;;;20.10;54.70;;;;;;4917067;28;87878;-86
2022/03/26 10:19:59;;;;;;;27.10;14.25;;;20.10;55.50;;;;;;4911851;28;87679;-87
2022/03/26 10:22:30;;;;;;;31.15;13.93;;;20.10;55.90;;;;;;4898865;28;91939;-87
2022/03/26 10:25:04;;;;;;;28.92;14.35;;;20.10;56.50;;;;;;4902803;28;90655;-84
2022/03/26 10:27:53;;;;;;;20.73;11.00;;;20.10;57.20;;;;;;4911259;28;87851;-86
2022/03/26 10:33:30;;;;;;;87.18;26.60;;;20.10;56.70;;;;;;4910922;28;87648;-85
2022/03/26 10:36:03;;;;;;;66.68;23.83;;;20.10;56.30;;;;;;4910315;28;87980;-86
2022/03/26 10:38:31;;;;;;;85.75;27.65;;;20.10;56.90;;;;;;4910760;28;87776;-86
2022/03/26 10:41:01;;;;;;;55.78;20.80;;;20.10;56.90;;;;;;4908998;28;88519;-86
2022/03/26 10:43:28;;;;;;;66.75;23.00;;;20.10;56.80;;;;;;4909530;28;88260;-84
2022/03/26 10:46:03;;;;;;;73.90;24.00;;;20.10;56.40;;;;;;4908623;28;90206;-84
2022/03/26 10:48:34;;;;;;;77.30;25.60;;;20.10;56.40;;;;;;4911217;28;88918;-86
2022/03/26 10:51:05;;;;;;;59.40;21.50;;;20.10;55.50;;;;;;4902078;28;88052;-85
2022/03/26 10:53:41;;;;;;;82.65;27.70;;;20.10;55.00;;;;;;4910808;28;88130;-84
2022/03/26 10:56:08;;;;;;;77.53;27.98;;;20.10;54.80;;;;;;4909174;28;87576;-87
2022/03/26 10:58:35;;;;;;;79.70;29.27;;;20.10;55.90;;;;;;4910449;28;87897;-84
2022/03/26 11:01:02;;;;;;;77.38;27.27;;;20.10;56.10;;;;;;4910500;28;87706;-85
2022/03/26 11:03:28;;;;;;;84.05;28.85;;;20.10;57.00;;;;;;4911006;28;87663;-86
2022/03/26 11:05:55;;;;;;;83.78;29.50;;;20.10;57.70;;;;;;4910379;28;87130;-85
2022/03/26 11:08:22;;;;;;;73.55;28.00;;;20.10;57.90;;;;;;4909274;28;87474;-84
2022/03/26 11:10:56;;;;;;;73.40;28.10;;;20.10;58.60;;;;;;4908742;28;89223;-85
2022/03/26 11:13:26;;;;;;;81.43;27.83;;;20.10;58.60;;;;;;4910828;28;89232;-86
2022/03/26 11:16:02;;;;;;;73.45;27.80;;;20.10;58.60;;;;;;4925597;28;91592;-86
2022/03/26 11:18:59;;;;;;;71.57;27.55;;;20.10;58.60;;;;;;4911248;28;87296;-87
2022/03/26 11:22:02;;;;;;;78.65;26.95;;;20.10;58.70;;;;;;4899404;28;88964;-85
2022/03/26 11:24:59;;;;;;;70.53;26.83;;;20.10;58.40;;;;;;4910903;28;88579;-84
2022/03/26 11:27:51;;;;;;;62.85;26.30;;;20.10;58.70;;;;;;4922817;28;90615;-84
2022/03/26 11:30:27;;;;;;;82.05;26.73;;;20.10;58.20;;;;;;4907949;28;87133;-85
2022/03/26 11:32:55;;;;;;;68.93;27.48;;;20.10;58.20;;;;;;4899136;28;89547;-86
2022/03/26 11:35:21;;;;;;;73.28;28.27;;;20.10;58.20;;;;;;4909653;28;89376;-84
2022/03/26 11:38:01;;;;;;;70.80;27.40;;;20.10;58.00;;;;;;4908223;28;89025;-85
2022/03/26 11:40:43;;;;;;;64.22;25.77;;;20.10;57.70;;;;;;4895873;28;88645;-84
2022/03/26 11:43:15;;;;;;;64.93;27.13;;;20.10;57.80;;;;;;4910921;28;87865;-85
2022/03/26 11:51:23;;;;;;;63.60;24.98;;;20.10;57.70;;;;;;4911309;28;87793;-85
2022/03/26 11:54:04;;;;;;;64.18;25.02;;;20.00;56.90;;;;;;4910855;28;87015;-85
2022/03/26 11:56:31;;;;;;;55.58;24.20;;;20.00;56.60;;;;;;4909936;28;88261;-85
2022/03/26 11:59:03;;;;;;;58.42;25.25;;;20.00;56.60;;;;;;4911339;28;88325;-84
2022/03/26 12:01:36;;;;;;;55.33;24.52;;;20.00;55.60;;;;;;4911312;28;87588;-84
2022/03/26 12:04:45;;;;;;;57.78;24.00;;;20.00;55.40;;;;;;4923033;28;88922;-85
2022/03/26 12:07:15;;;;;;;52.45;22.38;;;20.00;55.70;;;;;;4903133;28;88951;-85
2022/03/26 12:09:40;;;;;;;;;;;20.00;55.20;;;;;;4908433;28;88783;-84
2022/03/26 12:12:13;;;;;;;57.40;24.23;;;20.00;55.00;;;;;;4911834;28;86997;-84
2022/03/26 12:15:04;;;;;;;55.75;23.67;;;20.00;54.80;;;;;;4909366;28;89170;-86
2022/03/26 12:17:50;;;;;;;53.15;23.20;;;20.10;54.60;;;;;;4911187;28;88228;-83
2022/03/26 12:20:35;;;;;;;51.53;22.58;;;20.10;54.70;;;;;;4908543;28;90746;-83
2022/03/26 12:23:28;;;;;;;49.33;22.30;;;20.10;54.70;;;;;;4925724;28;87961;-85
2022/03/26 12:26:06;;;;;;;53.40;21.85;;;20.10;54.40;;;;;;4913838;28;88634;-84
2022/03/26 12:28:37;;;;;;;49.03;21.95;;;20.10;54.60;;;;;;4911828;28;88895;-85
2022/03/26 12:31:11;;;;;;;50.33;22.35;;;20.10;54.70;;;;;;4910353;28;90305;-83
2022/03/26 12:33:48;;;;;;;49.58;22.98;;;20.10;55.00;;;;;;4909981;28;88844;-84
2022/03/26 12:36:21;;;;;;;47.85;22.40;;;20.10;54.80;;;;;;4910146;28;87476;-83
2022/03/26 12:38:49;;;;;;;50.50;21.38;;;20.10;54.80;;;;;;4896194;28;90191;-85
2022/03/26 12:41:15;;;;;;;55.60;22.15;;;20.10;55.00;;;;;;4910427;28;87975;-83
2022/03/26 12:43:41;;;;;;;46.70;21.60;;;20.10;55.10;;;;;;4909098;28;87855;-85
2022/03/26 12:46:09;;;;;;;51.55;21.35;;;20.10;55.30;;;;;;4909183;28;89616;-86
2022/03/26 12:48:36;;;;;;;46.90;21.60;;;20.00;55.40;;;;;;4910417;28;88328;-84
2022/03/26 12:51:04;;;;;;;43.35;21.20;;;20.10;56.10;;;;;;4909779;28;87555;-86